createdAt,value
2023-01-03T00:02:10.923Z,100982.22
2023-01-03T00:04:44.492Z,100978.09
2023-01-03T00:07:14.272Z,100981.28
2023-01-03T00:09:40.810Z,100980.59
2023-01-03T00:12:30.565Z,100983.25
2023-01-03T00:14:59.463Z,100983.88
2023-01-03T00:17:26.707Z,100990.78
2023-01-03T00:19:53.423Z,100979.22
2023-01-03T00:22:20.265Z,100980.38
2023-01-03T00:24:48.482Z,100987.16
2023-01-03T00:27:16.367Z,100989.38
2023-01-03T00:29:42.916Z,100994.53
2023-01-03T00:32:10.070Z,100994.09
2023-01-03T00:34:37.039Z,100986.88
2023-01-03T00:37:03.900Z,100994.88
2023-01-03T00:39:30.664Z,100999.09
2023-01-03T00:41:57.217Z,100995.69
2023-01-03T00:44:23.909Z,100997.25
2023-01-03T00:46:50.562Z,101003.38
2023-01-03T00:49:17.151Z,101010.34
2023-01-03T00:51:43.961Z,101015.13
2023-01-03T00:54:12.247Z,101015.25
2023-01-03T00:56:42.811Z,101032.75
2023-01-03T00:59:10.389Z,101035.81
2023-01-03T01:01:48.143Z,101040.81
2023-01-03T01:04:18.069Z,101039.72
2023-01-03T01:06:47.684Z,101041.53
2023-01-03T01:09:20.355Z,101046.09
2023-01-03T01:11:47.928Z,101050.97
2023-01-03T01:14:21.414Z,101051.22
2023-01-03T01:16:56.939Z,101059.00
2023-01-03T01:19:27.596Z,101059.00
2023-01-03T01:21:54.550Z,101061.56
2023-01-03T01:24:21.314Z,101070.34
2023-01-03T01:26:47.887Z,101076.34
2023-01-03T01:29:15.707Z,101080.06
2023-01-03T01:31:43.107Z,101079.28
2023-01-03T01:34:10.085Z,101087.13
2023-01-03T01:36:39.498Z,101081.28
2023-01-03T01:39:07.665Z,101094.91
2023-01-03T01:41:55.582Z,101098.03
2023-01-03T01:44:40.534Z,101098.47
2023-01-03T01:47:14.956Z,101110.16
2023-01-03T01:49:42.825Z,101108.94
2023-01-03T01:52:10.564Z,101112.09
2023-01-03T01:54:38.189Z,101115.47
2023-01-03T01:57:04.747Z,101112.78
2023-01-03T01:59:32.237Z,101110.81
2023-01-03T02:01:58.889Z,101121.44
2023-01-03T02:04:30.994Z,101125.03
2023-01-03T02:06:58.198Z,101124.47
2023-01-03T02:09:24.727Z,101119.44
2023-01-03T02:12:28.787Z,101126.59
2023-01-03T02:15:11.341Z,101123.03
2023-01-03T02:18:05.686Z,101127.84
2023-01-03T02:20:56.610Z,101123.72
2023-01-03T02:23:54.774Z,101127.16
2023-01-03T02:26:41.817Z,101129.22
2023-01-03T02:29:17.462Z,101129.94
2023-01-03T02:31:53.246Z,101129.94
2023-01-03T02:34:59.834Z,101123.94
2023-01-03T02:37:41.926Z,101133.66
2023-01-03T02:40:23.313Z,101131.06
2023-01-03T02:42:58.037Z,101136.72
2023-01-03T02:46:00.520Z,101137.41
2023-01-03T02:48:36.346Z,101127.69
2023-01-03T02:51:08.632Z,101131.25
2023-01-03T02:53:41.083Z,101130.13
2023-01-03T02:56:15.574Z,101133.72
2023-01-03T02:58:46.874Z,101137.13
2023-01-03T03:01:15.865Z,101138.84
2023-01-03T03:03:43.443Z,101136.94
2023-01-03T03:06:26.220Z,101137.03
2023-01-03T03:08:52.809Z,101140.34
2023-01-03T03:11:38.058Z,101136.78
2023-01-03T03:14:15.449Z,101141.25
2023-01-03T03:16:49.063Z,101141.31
2023-01-03T03:19:54.448Z,101139.63
2023-01-03T03:23:00.679Z,101151.03
2023-01-03T03:25:33.290Z,101135.25
2023-01-03T03:28:23.480Z,101141.53
2023-01-03T03:30:54.594Z,101146.13
2023-01-03T03:33:23.678Z,101145.53
2023-01-03T03:35:57.204Z,101148.53
2023-01-03T03:38:32.157Z,101153.94
2023-01-03T03:41:29.814Z,101151.50
2023-01-03T03:44:35.354Z,101162.84
2023-01-03T03:47:24.715Z,101155.88
2023-01-03T03:49:55.122Z,101162.16
2023-01-03T03:52:26.807Z,101160.75
2023-01-03T03:55:12.000Z,101166.28
2023-01-03T03:57:57.521Z,101169.56
2023-01-03T04:00:29.550Z,101167.88
2023-01-03T04:02:59.352Z,101174.16
2023-01-03T04:05:28.866Z,101166.22
2023-01-03T04:07:55.333Z,101174.94
2023-01-03T04:10:23.631Z,101178.00
2023-01-03T04:12:51.940Z,101183.91
2023-01-03T04:15:19.261Z,101182.06
2023-01-03T04:17:45.959Z,101190.09
2023-01-03T04:20:13.035Z,101183.78
2023-01-03T04:22:39.924Z,101188.00
2023-01-03T04:25:07.183Z,101182.06
2023-01-03T04:27:34.340Z,101185.63
2023-01-03T04:30:00.995Z,101185.63
2023-01-03T04:32:27.552Z,101193.53
2023-01-03T04:34:54.120Z,101197.75
2023-01-03T04:37:20.634Z,101202.25
2023-01-03T04:39:47.154Z,101204.97
2023-01-03T04:42:32.181Z,101207.25
2023-01-03T04:44:58.730Z,101214.41
2023-01-03T04:47:25.298Z,101210.84
2023-01-03T04:49:51.821Z,101200.28
2023-01-03T04:52:18.348Z,101210.75
2023-01-03T04:54:44.925Z,101222.09
2023-01-03T04:57:11.445Z,101223.00
2023-01-03T04:59:38.008Z,101226.94
2023-01-03T05:02:04.899Z,101221.06
2023-01-03T05:04:31.557Z,101226.06
2023-01-03T05:06:58.153Z,101224.28
2023-01-03T05:09:26.854Z,101225.28
2023-01-03T05:11:53.413Z,101227.78
2023-01-03T05:14:19.932Z,101225.94
2023-01-03T05:16:46.556Z,101230.41
2023-01-03T05:19:13.504Z,101234.00
2023-01-03T05:21:58.476Z,101245.56
2023-01-03T05:24:43.649Z,101248.44
2023-01-03T05:27:10.321Z,101255.78
2023-01-03T05:29:37.024Z,101251.69
2023-01-03T05:32:03.754Z,101250.56
2023-01-03T05:34:30.345Z,101256.56
2023-01-03T05:36:56.865Z,101254.72
2023-01-03T05:39:23.398Z,101262.72
2023-01-03T05:42:02.168Z,101262.25
2023-01-03T05:44:30.701Z,101269.69
2023-01-03T05:46:58.494Z,101263.22
2023-01-03T05:49:25.165Z,101267.88
2023-01-03T05:51:51.816Z,101271.22
2023-01-03T05:54:20.080Z,101265.69
2023-01-03T05:56:47.265Z,101273.91
2023-01-03T05:59:13.995Z,101269.44
2023-01-03T06:01:40.631Z,101282.44
2023-01-03T06:04:07.522Z,101274.50
2023-01-03T06:06:34.556Z,101277.28
2023-01-03T06:09:01.145Z,101279.06
2023-01-03T06:11:27.742Z,101282.13
2023-01-03T06:13:55.528Z,101274.50
2023-01-03T06:16:40.578Z,101279.06
2023-01-03T06:19:08.464Z,101281.38
2023-01-03T06:21:35.879Z,101283.56
2023-01-03T06:24:02.579Z,101285.53
2023-01-03T06:26:29.383Z,101291.47
2023-01-03T06:28:56.165Z,101290.53
2023-01-03T06:31:22.772Z,101293.94
2023-01-03T06:33:49.873Z,101295.09
2023-01-03T06:36:19.386Z,101301.16
2023-01-03T06:38:45.955Z,101298.66
2023-01-03T06:41:14.085Z,101307.97
2023-01-03T06:43:41.186Z,101293.78
2023-01-03T06:46:26.270Z,101300.84
2023-01-03T06:49:11.438Z,101308.81
2023-01-03T06:51:56.868Z,101308.03
2023-01-03T06:54:26.863Z,101302.91
2023-01-03T06:56:54.651Z,101308.88
2023-01-03T06:59:22.139Z,101315.16
2023-01-03T07:01:51.123Z,101321.66
2023-01-03T07:04:18.482Z,101316.38
2023-01-03T07:06:45.392Z,101315.28
2023-01-03T07:09:12.664Z,101320.03
2023-01-03T07:11:40.429Z,101320.25
2023-01-03T07:14:09.709Z,101323.91
2023-01-03T07:16:38.157Z,101326.41
2023-01-03T07:19:06.476Z,101326.34
2023-01-03T07:21:34.511Z,101336.31
2023-01-03T07:24:02.720Z,101341.41
2023-01-03T07:26:32.127Z,101339.06
2023-01-03T07:29:00.119Z,101339.91
2023-01-03T07:31:27.189Z,101342.72
2023-01-03T07:33:54.135Z,101347.97
2023-01-03T07:36:21.751Z,101342.97
2023-01-03T07:38:48.591Z,101349.56
2023-01-03T07:41:16.392Z,101344.25
2023-01-03T07:43:46.328Z,101353.53
2023-01-03T07:46:24.895Z,101349.56
2023-01-03T07:48:53.528Z,101354.03
2023-01-03T07:51:21.935Z,101364.41
2023-01-03T07:53:53.148Z,101365.59
2023-01-03T07:56:21.997Z,101379.03
2023-01-03T07:58:51.938Z,101373.34
2023-01-03T08:01:21.634Z,101381.09
2023-01-03T08:03:48.888Z,101371.03
2023-01-03T08:06:19.529Z,101379.31
2023-01-03T08:09:06.662Z,101386.97
2023-01-03T08:11:52.045Z,101386.75
2023-01-03T08:14:23.577Z,101389.59
2023-01-03T08:16:52.060Z,101395.84
2023-01-03T08:19:18.569Z,101400.34
2023-01-03T08:21:45.104Z,101413.38
2023-01-03T08:24:11.679Z,101406.97
2023-01-03T08:26:38.358Z,101409.88
2023-01-03T08:29:04.891Z,101411.41
2023-01-03T08:31:34.421Z,101407.50
2023-01-03T08:34:07.647Z,101406.31
2023-01-03T08:36:47.749Z,101411.66
2023-01-03T08:39:18.383Z,101408.06
2023-01-03T08:41:54.155Z,101407.88
2023-01-03T08:44:21.017Z,101411.28
2023-01-03T08:46:51.408Z,101401.50
2023-01-03T08:49:19.310Z,101414.13
2023-01-03T08:51:46.381Z,101406.78
2023-01-03T08:54:13.223Z,101414.47
2023-01-03T08:56:40.199Z,101409.94
2023-01-03T08:59:07.203Z,101409.75
2023-01-03T09:01:34.167Z,101413.50
2023-01-03T09:04:00.904Z,101421.19
2023-01-03T09:06:27.532Z,101418.47
2023-01-03T09:08:54.115Z,101424.41
2023-01-03T09:11:20.659Z,101430.09
2023-01-03T09:13:47.443Z,101426.03
2023-01-03T09:16:16.328Z,101429.66
2023-01-03T09:18:43.198Z,101439.38
2023-01-03T09:21:09.836Z,101432.13
2023-01-03T09:23:36.649Z,101439.97
2023-01-03T09:26:03.780Z,101424.16
2023-01-03T09:28:30.387Z,101435.47
2023-01-03T09:30:57.083Z,101436.47
2023-01-03T09:33:23.768Z,101441.63
2023-01-03T09:35:54.125Z,101443.38
2023-01-03T09:38:22.167Z,101445.00
2023-01-03T09:40:58.217Z,101431.66
2023-01-03T09:43:31.117Z,101449.97
2023-01-03T09:45:59.937Z,101444.50
2023-01-03T09:48:34.608Z,101458.44
2023-01-03T09:51:22.551Z,101462.00
2023-01-03T09:54:06.846Z,101460.03
2023-01-03T09:56:51.701Z,101449.63
2023-01-03T09:59:37.075Z,101448.06
2023-01-03T10:02:40.123Z,101452.69
2023-01-03T10:05:14.433Z,101453.31
2023-01-03T10:08:08.900Z,101440.03
2023-01-03T10:11:34.285Z,101443.34
2023-01-03T10:14:03.471Z,101447.78
2023-01-03T10:16:51.425Z,101456.50
2023-01-03T10:19:17.829Z,101455.69
2023-01-03T10:22:11.342Z,101450.34
2023-01-03T10:24:47.399Z,101454.66
2023-01-03T10:27:22.160Z,101455.53
2023-01-03T10:29:53.900Z,101454.53
2023-01-03T10:32:32.513Z,101437.91
2023-01-03T10:35:17.289Z,101442.97
2023-01-03T10:37:44.901Z,101446.41
2023-01-03T10:40:13.027Z,101436.50
2023-01-03T10:42:42.119Z,101448.81
2023-01-03T10:45:21.755Z,101443.44
2023-01-03T10:48:01.652Z,101442.53
2023-01-03T10:50:29.567Z,101445.28
2023-01-03T10:53:08.572Z,101433.69
2023-01-03T10:55:43.854Z,101435.84
2023-01-03T10:58:29.264Z,101432.41
2023-01-03T11:01:24.607Z,101428.00
2023-01-03T11:04:19.841Z,101434.69
2023-01-03T11:07:16.976Z,101428.38
2023-01-03T11:09:52.520Z,101422.13
2023-01-03T11:12:35.788Z,101431.03
2023-01-03T11:15:19.088Z,101421.59
2023-01-03T11:17:57.462Z,101429.34
2023-01-03T11:20:56.285Z,101425.56
2023-01-03T11:24:03.359Z,101406.41
2023-01-03T11:26:49.824Z,101413.03
2023-01-03T11:29:53.360Z,101410.09
2023-01-03T11:32:32.307Z,101393.84
2023-01-03T11:37:54.092Z,101405.66
2023-01-03T11:40:38.865Z,101397.69
2023-01-03T11:43:11.190Z,101404.09
2023-01-03T11:45:59.808Z,101403.25
2023-01-03T11:48:47.704Z,101406.09
2023-01-03T11:51:35.882Z,101400.00
2023-01-03T11:54:11.884Z,101399.88
2023-01-03T11:56:43.140Z,101394.56
2023-01-03T11:59:37.317Z,101394.84
2023-01-03T12:02:22.735Z,101400.84
2023-01-03T12:05:06.057Z,101406.41
2023-01-03T12:07:48.724Z,101404.16
2023-01-03T12:10:33.635Z,101408.91
2023-01-03T12:13:29.784Z,101401.41
2023-01-03T12:16:38.330Z,101397.13
2023-01-03T12:19:23.368Z,101411.38
2023-01-03T12:22:02.696Z,101398.31
2023-01-03T12:24:44.922Z,101406.00
2023-01-03T12:27:17.700Z,101404.75
2023-01-03T12:30:07.878Z,101404.94
2023-01-03T12:32:46.518Z,101405.06
2023-01-03T12:35:26.434Z,101396.41
2023-01-03T12:37:53.299Z,101397.13
2023-01-03T12:40:39.245Z,101393.97
2023-01-03T12:43:18.430Z,101395.25
2023-01-03T12:45:53.663Z,101399.50
2023-01-03T12:48:50.315Z,101383.31
2023-01-03T12:51:22.861Z,101382.31
2023-01-03T12:54:11.983Z,101383.03
2023-01-03T12:57:03.358Z,101381.09
2023-01-03T12:59:48.044Z,101382.31
2023-01-03T13:02:59.723Z,101377.94
2023-01-03T13:05:50.427Z,101371.91
2023-01-03T13:08:25.913Z,101370.91
2023-01-03T13:10:58.052Z,101370.25
2023-01-03T13:13:24.761Z,101354.09
2023-01-03T13:15:53.084Z,101367.31
2023-01-03T13:18:22.440Z,101370.69
2023-01-03T13:20:50.715Z,101364.97
2023-01-03T13:23:34.154Z,101366.72
2023-01-03T13:26:06.354Z,101382.56
2023-01-03T13:28:37.769Z,101370.47
2023-01-03T13:31:14.401Z,101371.25
2023-01-03T13:34:10.261Z,101366.97
2023-01-03T13:37:07.324Z,101371.66
2023-01-03T13:39:49.980Z,101378.72
2023-01-03T13:42:23.962Z,101378.28
2023-01-03T13:44:51.089Z,101377.88
2023-01-03T13:47:37.386Z,101375.03
2023-01-03T13:50:04.347Z,101380.25
2023-01-03T13:52:55.946Z,101371.84
2023-01-03T13:55:40.702Z,101372.84
2023-01-03T13:58:43.340Z,101372.06
2023-01-03T14:01:47.219Z,101368.25
2023-01-03T14:04:25.553Z,101380.91
2023-01-03T14:07:29.590Z,101380.63
2023-01-03T14:10:02.226Z,101382.97
2023-01-03T14:12:40.668Z,101387.34
2023-01-03T14:15:25.773Z,101391.41
2023-01-03T14:17:57.807Z,101394.72
2023-01-03T14:20:28.975Z,101390.41
2023-01-03T14:23:00.081Z,101385.25
2023-01-03T14:26:03.524Z,101399.09
2023-01-03T14:28:33.190Z,101397.88
2023-01-03T14:31:02.708Z,101403.72
2023-01-03T14:33:42.753Z,101397.66
2023-01-03T14:36:14.631Z,101402.41
2023-01-03T14:38:51.163Z,101397.16
2023-01-03T14:41:38.178Z,101406.91
2023-01-03T14:44:10.742Z,101404.00
2023-01-03T14:46:39.339Z,101396.97
2023-01-03T14:49:18.418Z,101397.25
2023-01-03T14:51:45.182Z,101401.41
2023-01-03T14:54:17.215Z,101407.50
2023-01-03T14:56:48.595Z,101407.66
2023-01-03T14:59:19.637Z,101408.13
2023-01-03T15:01:46.781Z,101423.19
2023-01-03T15:04:15.243Z,101421.09
2023-01-03T15:07:09.278Z,101422.19
2023-01-03T15:09:39.569Z,101419.50
2023-01-03T15:12:06.656Z,101419.44
2023-01-03T15:14:36.098Z,101418.59
2023-01-03T15:17:15.280Z,101422.06
2023-01-03T15:19:52.499Z,101430.13
2023-01-03T15:22:24.714Z,101443.81
2023-01-03T15:25:02.668Z,101429.75
2023-01-03T15:27:44.025Z,101440.19
2023-01-03T15:30:25.599Z,101436.84
2023-01-03T15:32:52.068Z,101433.41
2023-01-03T15:35:20.842Z,101440.41
2023-01-03T15:37:51.710Z,101436.38
2023-01-03T15:40:18.621Z,101442.38
2023-01-03T15:43:04.016Z,101436.75
2023-01-03T15:45:37.899Z,101445.75
2023-01-03T15:48:13.676Z,101452.03
2023-01-03T15:50:46.634Z,101454.88
2023-01-03T15:53:21.586Z,101461.88
2023-01-03T15:55:54.264Z,101462.97
2023-01-03T15:58:20.937Z,101458.84
2023-01-03T16:00:48.804Z,101465.59
2023-01-03T16:03:17.744Z,101469.22
2023-01-03T16:05:47.984Z,101475.88
2023-01-03T16:08:30.183Z,101467.94
2023-01-03T16:10:58.404Z,101465.34
2023-01-03T16:13:28.023Z,101474.81
2023-01-03T16:15:56.361Z,101470.63
2023-01-03T16:18:29.837Z,101466.53
2023-01-03T16:20:56.807Z,101466.31
2023-01-03T16:23:27.775Z,101465.47
2023-01-03T16:25:54.456Z,101471.81
2023-01-03T16:28:21.919Z,101469.00
2023-01-03T16:31:01.424Z,101471.44
2023-01-03T16:33:34.843Z,101475.84
2023-01-03T16:36:02.698Z,101483.50
2023-01-03T16:38:31.419Z,101475.47
2023-01-03T16:40:58.467Z,101472.41
2023-01-03T16:43:28.210Z,101475.84
2023-01-03T16:45:59.395Z,101466.47
2023-01-03T16:48:34.354Z,101473.22
2023-01-03T16:51:00.985Z,101474.03
2023-01-03T16:53:38.721Z,101466.38
2023-01-03T16:56:06.940Z,101467.94
2023-01-03T16:58:33.845Z,101470.72
2023-01-03T17:01:00.513Z,101477.59
2023-01-03T17:03:27.521Z,101480.81
2023-01-03T17:05:54.598Z,101475.13
2023-01-03T17:08:36.253Z,101475.34
2023-01-03T17:11:04.214Z,101476.19
2023-01-03T17:13:40.699Z,101472.38
2023-01-03T17:16:17.009Z,101469.53
2023-01-03T17:18:45.155Z,101466.47
2023-01-03T17:21:27.434Z,101470.78
2023-01-03T17:23:58.264Z,101478.84
2023-01-03T17:26:25.473Z,101475.72
2023-01-03T17:28:54.147Z,101483.44
2023-01-03T17:31:25.592Z,101482.56
2023-01-03T17:33:53.144Z,101490.59
2023-01-03T17:36:25.617Z,101484.75
2023-01-03T17:38:54.727Z,101486.50
2023-01-03T17:41:25.120Z,101494.13
2023-01-03T17:43:51.652Z,101492.19
2023-01-03T17:46:44.676Z,101502.00
2023-01-03T17:49:24.623Z,101501.41
2023-01-03T17:51:53.484Z,101499.41
2023-01-03T17:54:25.772Z,101498.66
2023-01-03T17:56:52.449Z,101502.28
2023-01-03T17:59:19.126Z,101499.31
2023-01-03T18:01:45.915Z,101503.91
2023-01-03T18:04:12.728Z,101505.44
2023-01-03T18:06:39.975Z,101502.84
2023-01-03T18:09:15.242Z,101504.75
2023-01-03T18:11:42.002Z,101497.28
2023-01-03T18:14:15.884Z,101498.94
2023-01-03T18:16:43.162Z,101489.06
2023-01-03T18:19:10.271Z,101495.94
2023-01-03T18:21:37.849Z,101500.25
2023-01-03T18:24:29.185Z,101485.16
2023-01-03T18:26:57.053Z,101492.13
2023-01-03T18:29:23.595Z,101492.25
2023-01-03T18:31:50.262Z,101502.53
2023-01-03T18:34:16.846Z,101501.41
2023-01-03T18:36:50.372Z,101498.63
2023-01-03T18:39:25.817Z,101494.31
2023-01-03T18:41:52.585Z,101504.88
2023-01-03T18:44:25.836Z,101499.06
2023-01-03T18:46:52.603Z,101508.69
2023-01-03T18:49:19.671Z,101514.31
2023-01-03T18:51:49.012Z,101518.69
2023-01-03T18:54:19.397Z,101523.03
2023-01-03T18:56:46.195Z,101520.44
2023-01-03T18:59:24.052Z,101524.81
2023-01-03T19:01:50.970Z,101524.22
2023-01-03T19:04:17.892Z,101519.81
2023-01-03T19:06:46.618Z,101515.41
2023-01-03T19:09:25.948Z,101522.38
2023-01-03T19:11:56.386Z,101518.00
2023-01-03T19:14:22.927Z,101512.66
2023-01-03T19:16:49.535Z,101518.16
2023-01-03T19:19:16.054Z,101509.41
2023-01-03T19:21:46.380Z,101513.59
2023-01-03T19:24:38.545Z,101506.91
2023-01-03T19:27:20.922Z,101500.84
2023-01-03T19:29:48.698Z,101500.81
2023-01-03T19:32:17.315Z,101508.72
2023-01-03T19:34:43.891Z,101505.31
2023-01-03T19:37:10.706Z,101494.91
2023-01-03T19:39:37.989Z,101499.44
2023-01-03T19:42:25.624Z,101505.72
2023-01-03T19:44:53.235Z,101503.19
2023-01-03T19:47:20.628Z,101506.91
2023-01-03T19:49:48.120Z,101506.97
2023-01-03T19:52:15.934Z,101500.72
2023-01-03T19:54:42.995Z,101498.78
2023-01-03T19:57:20.591Z,101497.97
2023-01-03T19:59:51.714Z,101498.00
2023-01-03T20:02:40.184Z,101494.63
2023-01-03T20:05:14.708Z,101479.69
2023-01-03T20:07:41.449Z,101475.63
2023-01-03T20:10:09.380Z,101486.22
2023-01-03T20:12:35.917Z,101490.44
2023-01-03T20:15:07.164Z,101495.94
2023-01-03T20:17:34.091Z,101487.69
2023-01-03T20:20:00.641Z,101495.56
2023-01-03T20:23:03.308Z,101503.88
2023-01-03T20:25:37.140Z,101500.06
2023-01-03T20:28:04.398Z,101502.50
2023-01-03T20:30:32.798Z,101497.16
2023-01-03T20:32:59.563Z,101497.28
2023-01-03T20:38:20.818Z,101493.22
2023-01-03T20:40:47.333Z,101492.03
2023-01-03T20:43:14.707Z,101483.81
2023-01-03T20:45:41.423Z,101481.22
2023-01-03T20:48:18.037Z,101489.53
2023-01-03T20:50:49.891Z,101482.94
2023-01-03T20:53:17.847Z,101478.97
2023-01-03T20:55:44.398Z,101488.00
2023-01-03T20:58:18.398Z,101488.44
2023-01-03T21:00:45.073Z,101485.09
2023-01-03T21:03:12.032Z,101469.25
2023-01-03T21:05:39.235Z,101476.56
2023-01-03T21:08:25.612Z,101481.19
2023-01-03T21:10:55.173Z,101467.06
2023-01-03T21:15:57.466Z,101470.00
2023-01-03T21:18:24.064Z,101473.00
2023-01-03T21:20:50.640Z,101467.09
2023-01-03T21:23:22.788Z,101469.47
2023-01-03T21:25:50.090Z,101471.34
2023-01-03T21:28:16.743Z,101458.34
2023-01-03T21:30:43.308Z,101460.72
2023-01-03T21:33:18.226Z,101466.75
2023-01-03T21:35:46.171Z,101453.91
2023-01-03T21:38:12.928Z,101446.91
2023-01-03T21:40:39.741Z,101454.75
2023-01-03T21:43:06.747Z,101457.59
2023-01-03T21:45:48.080Z,101457.81
2023-01-03T21:48:16.573Z,101454.00
2023-01-03T21:50:47.753Z,101452.69
2023-01-03T21:53:23.003Z,101457.53
2023-01-03T21:55:50.234Z,101450.81
2023-01-03T21:58:19.839Z,101448.44
2023-01-03T22:00:46.353Z,101446.19
2023-01-03T22:03:33.125Z,101448.13
2023-01-03T22:06:06.711Z,101444.00
2023-01-03T22:08:33.274Z,101452.91
2023-01-03T22:11:00.010Z,101452.06
2023-01-03T22:13:26.648Z,101449.94
2023-01-03T22:15:53.381Z,101445.97
2023-01-03T22:18:19.964Z,101441.75
2023-01-03T22:20:46.534Z,101442.06
2023-01-03T22:23:14.062Z,101440.97
2023-01-03T22:25:40.660Z,101444.97
2023-01-03T22:28:07.224Z,101433.19
2023-01-03T22:30:33.850Z,101434.69
2023-01-03T22:33:00.417Z,101436.38
2023-01-03T22:35:27.002Z,101429.28
2023-01-03T22:37:55.832Z,101429.19
2023-01-03T22:40:22.831Z,101431.81
2023-01-03T22:42:49.344Z,101429.00
2023-01-03T22:45:15.961Z,101429.88
2023-01-03T22:47:42.531Z,101425.69
2023-01-03T22:50:09.853Z,101424.84
2023-01-03T22:52:37.976Z,101430.50
2023-01-03T22:55:04.888Z,101423.53
2023-01-03T22:57:31.417Z,101424.75
2023-01-03T22:59:57.943Z,101431.34
2023-01-03T23:02:40.940Z,101431.13
2023-01-03T23:05:08.431Z,101428.31
2023-01-03T23:07:35.015Z,101429.66
2023-01-03T23:10:01.593Z,101421.16
2023-01-03T23:12:46.393Z,101417.28
2023-01-03T23:15:12.934Z,101423.91
2023-01-03T23:17:57.744Z,101416.81
2023-01-03T23:20:33.931Z,101417.38
2023-01-03T23:23:03.088Z,101416.47
2023-01-03T23:25:37.725Z,101415.91
2023-01-03T23:28:04.535Z,101418.53
2023-01-03T23:30:32.596Z,101407.75
2023-01-03T23:32:59.131Z,101410.41
2023-01-03T23:35:25.685Z,101407.03
2023-01-03T23:37:52.229Z,101413.09
2023-01-03T23:40:18.731Z,101411.22
2023-01-03T23:42:45.301Z,101409.22
2023-01-03T23:45:12.000Z,101403.94
2023-01-03T23:47:38.542Z,101399.47
2023-01-03T23:50:05.465Z,101392.28
2023-01-03T23:52:33.035Z,101397.31
2023-01-03T23:55:03.622Z,101390.94
2023-01-03T23:57:33.422Z,101377.84
2023-01-03T23:59:59.932Z,101375.59
